sensor_id;sensor_type;location;lat;lon;timestamp;pressure;altitude;pressure_sealevel;temperature;humidity
13767;BME280;47980;48.794;9.176;2023-05-24T00:01:38;98549.84;;;14.86;71.88
13767;BME280;47980;48.794;9.176;2023-05-24T00:04:11;98555.47;;;14.69;72.07
13767;BME280;47980;48.794;9.176;2023-05-24T00:06:45;98543.84;;;14.77;71.61
13767;BME280;47980;48.794;9.176;2023-05-24T00:09:17;98545.34;;;14.90;71.91
13767;BME280;47980;48.794;9.176;2023-05-24T00:11:49;98545.34;;;14.90;71.80
13767;BME280;47980;48.794;9.176;2023-05-24T00:14:20;98542.50;;;14.83;71.51
13767;BME280;47980;48.794;9.176;2023-05-24T00:16:52;98537.94;;;14.84;72.46
13767;BME280;47980;48.794;9.176;2023-05-24T00:19:24;98532.69;;;14.87;71.62
13767;BME280;47980;48.794;9.176;2023-05-24T00:21:58;98538.59;;;14.81;71.61
13767;BME280;47980;48.794;9.176;2023-05-24T00:24:29;98538.78;;;14.88;71.78
13767;BME280;47980;48.794;9.176;2023-05-24T00:27:01;98540.19;;;14.82;71.04
13767;BME280;47980;48.794;9.176;2023-05-24T00:29:32;98535.84;;;14.77;70.84
13767;BME280;47980;48.794;9.176;2023-05-24T00:32:04;98526.66;;;14.62;73.66
13767;BME280;47980;48.794;9.176;2023-05-24T00:34:36;98532.63;;;15.00;70.44
13767;BME280;47980;48.794;9.176;2023-05-24T00:37:09;98526.16;;;15.01;70.59
13767;BME280;47980;48.794;9.176;2023-05-24T00:39:41;98530.97;;;14.95;70.91
13767;BME280;47980;48.794;9.176;2023-05-24T00:42:12;98520.25;;;14.79;70.86
13767;BME280;47980;48.794;9.176;2023-05-24T00:44:44;98520.06;;;14.72;70.70
13767;BME280;47980;48.794;9.176;2023-05-24T00:47:16;98521.88;;;14.68;71.19
13767;BME280;47980;48.794;9.176;2023-05-24T00:49:47;98525.47;;;14.48;72.85
13767;BME280;47980;48.794;9.176;2023-05-24T00:52:20;98524.34;;;14.49;71.44
13767;BME280;47980;48.794;9.176;2023-05-24T00:54:52;98518.66;;;14.62;70.12
13767;BME280;47980;48.794;9.176;2023-05-24T00:57:23;98520.66;;;14.65;70.12
13767;BME280;47980;48.794;9.176;2023-05-24T00:59:57;98521.81;;;14.52;68.87
13767;BME280;47980;48.794;9.176;2023-05-24T01:02:29;98523.72;;;14.52;69.54
13767;BME280;47980;48.794;9.176;2023-05-24T01:05:01;98522.72;;;14.44;68.61
13767;BME280;47980;48.794;9.176;2023-05-24T01:07:41;98521.34;;;14.22;69.74
13767;BME280;47980;48.794;9.176;2023-05-24T01:10:24;98522.28;;;14.42;69.06
13767;BME280;47980;48.794;9.176;2023-05-24T01:13:04;98526.78;;;14.26;70.00
13767;BME280;47980;48.794;9.176;2023-05-24T01:15:48;98520.88;;;14.32;69.82
13767;BME280;47980;48.794;9.176;2023-05-24T01:18:25;98521.53;;;14.29;69.33
13767;BME280;47980;48.794;9.176;2023-05-24T01:21:13;98523.78;;;14.15;68.89
13767;BME280;47980;48.794;9.176;2023-05-24T01:23:54;98524.09;;;14.38;67.82
13767;BME280;47980;48.794;9.176;2023-05-24T01:26:39;98524.88;;;14.26;68.02
13767;BME280;47980;48.794;9.176;2023-05-24T01:29:15;98527.19;;;14.40;66.94
13767;BME280;47980;48.794;9.176;2023-05-24T01:31:47;98524.44;;;14.24;66.60
13767;BME280;47980;48.794;9.176;2023-05-24T01:34:19;98526.81;;;14.01;66.32
13767;BME280;47980;48.794;9.176;2023-05-24T01:36:50;98526.47;;;14.15;66.40
13767;BME280;47980;48.794;9.176;2023-05-24T01:39:24;98516.28;;;14.33;65.62
13767;BME280;47980;48.794;9.176;2023-05-24T01:42:04;98523.78;;;14.27;65.25
13767;BME280;47980;48.794;9.176;2023-05-24T01:44:45;98515.50;;;13.92;67.23
13767;BME280;47980;48.794;9.176;2023-05-24T01:47:24;98521.28;;;14.06;66.64
13767;BME280;47980;48.794;9.176;2023-05-24T01:50:02;98523.94;;;14.06;66.86
13767;BME280;47980;48.794;9.176;2023-05-24T01:52:38;98539.25;;;14.21;65.61
13767;BME280;47980;48.794;9.176;2023-05-24T01:55:12;98531.91;;;14.18;66.18
13767;BME280;47980;48.794;9.176;2023-05-24T01:57:47;98526.47;;;14.15;65.40
13767;BME280;47980;48.794;9.176;2023-05-24T02:00:22;98538.72;;;14.04;66.74
13767;BME280;47980;48.794;9.176;2023-05-24T02:02:54;98537.50;;;14.01;67.46
13767;BME280;47980;48.794;9.176;2023-05-24T02:05:26;98538.19;;;13.86;67.55
13767;BME280;47980;48.794;9.176;2023-05-24T02:07:58;98528.50;;;13.93;66.97
13767;BME280;47980;48.794;9.176;2023-05-24T02:10:29;98528.28;;;13.86;68.30
13767;BME280;47980;48.794;9.176;2023-05-24T02:13:01;98532.41;;;13.84;68.38
13767;BME280;47980;48.794;9.176;2023-05-24T02:15:34;98530.50;;;13.96;67.40
13767;BME280;47980;48.794;9.176;2023-05-24T02:18:07;98540.00;;;14.22;66.50
13767;BME280;47980;48.794;9.176;2023-05-24T02:20:40;98535.63;;;13.89;67.35
13767;BME280;47980;48.794;9.176;2023-05-24T02:23:12;98535.41;;;13.82;67.80
13767;BME280;47980;48.794;9.176;2023-05-24T02:25:43;98536.81;;;14.04;67.08
13767;BME280;47980;48.794;9.176;2023-05-24T02:28:15;98542.41;;;13.75;67.57
13767;BME280;47980;48.794;9.176;2023-05-24T02:30:48;98541.41;;;13.79;68.65
13767;BME280;47980;48.794;9.176;2023-05-24T02:33:20;98546.19;;;13.61;69.37
13767;BME280;47980;48.794;9.176;2023-05-24T02:35:54;98531.88;;;13.66;67.88
13767;BME280;47980;48.794;9.176;2023-05-24T02:38:26;98544.63;;;13.60;68.80
13767;BME280;47980;48.794;9.176;2023-05-24T02:40:58;98536.84;;;13.80;67.71
13767;BME280;47980;48.794;9.176;2023-05-24T02:43:29;98534.31;;;13.71;67.76
13767;BME280;47980;48.794;9.176;2023-05-24T02:46:02;98537.84;;;13.75;67.49
13767;BME280;47980;48.794;9.176;2023-05-24T02:48:34;98533.19;;;13.84;66.96
13767;BME280;47980;48.794;9.176;2023-05-24T02:51:05;98541.31;;;13.63;68.31
13767;BME280;47980;48.794;9.176;2023-05-24T02:53:37;98534.09;;;13.64;69.05
13767;BME280;47980;48.794;9.176;2023-05-24T02:56:10;98532.84;;;13.61;68.73
13767;BME280;47980;48.794;9.176;2023-05-24T02:58:43;98544.22;;;13.58;68.21
13767;BME280;47980;48.794;9.176;2023-05-24T03:01:16;98532.38;;;13.22;70.11
13767;BME280;47980;48.794;9.176;2023-05-24T03:03:48;98535.88;;;13.47;68.70
13767;BME280;47980;48.794;9.176;2023-05-24T03:06:20;98534.63;;;13.45;68.58
13767;BME280;47980;48.794;9.176;2023-05-24T03:08:52;98536.97;;;13.46;69.94
13767;BME280;47980;48.794;9.176;2023-05-24T03:11:23;98535.63;;;13.40;69.13
13767;BME280;47980;48.794;9.176;2023-05-24T03:13:55;98535.34;;;13.21;70.20
13767;BME280;47980;48.794;9.176;2023-05-24T03:16:28;98529.19;;;13.41;69.68
13767;BME280;47980;48.794;9.176;2023-05-24T03:19:01;98531.75;;;13.38;69.23
13767;BME280;47980;48.794;9.176;2023-05-24T03:21:32;98530.47;;;13.23;68.85
13767;BME280;47980;48.794;9.176;2023-05-24T03:24:04;98535.84;;;13.35;69.39
13767;BME280;47980;48.794;9.176;2023-05-24T03:26:36;98529.22;;;13.08;70.02
13767;BME280;47980;48.794;9.176;2023-05-24T03:29:07;98535.09;;;13.01;71.53
13767;BME280;47980;48.794;9.176;2023-05-24T03:31:40;98533.28;;;13.27;70.50
13767;BME280;47980;48.794;9.176;2023-05-24T03:34:11;98527.34;;;13.21;70.29
13767;BME280;47980;48.794;9.176;2023-05-24T03:36:43;98533.00;;;13.07;70.60
13767;BME280;47980;48.794;9.176;2023-05-24T03:39:14;98529.22;;;13.08;70.54
13767;BME280;47980;48.794;9.176;2023-05-24T03:41:46;98537.06;;;12.92;71.79
13767;BME280;47980;48.794;9.176;2023-05-24T03:44:17;98530.56;;;13.14;70.28
13767;BME280;47980;48.794;9.176;2023-05-24T03:46:50;98537.59;;;12.86;71.34
13767;BME280;47980;48.794;9.176;2023-05-24T03:49:22;98535.22;;;13.05;70.83
13767;BME280;47980;48.794;9.176;2023-05-24T03:51:53;98544.38;;;12.95;71.50
13767;BME280;47980;48.794;9.176;2023-05-24T03:54:25;98537.22;;;13.08;71.20
13767;BME280;47980;48.794;9.176;2023-05-24T03:56:56;98537.22;;;13.20;69.94
13767;BME280;47980;48.794;9.176;2023-05-24T03:59:28;98540.41;;;13.01;72.09
13767;BME280;47980;48.794;9.176;2023-05-24T04:02:01;98531.28;;;12.90;71.66
13767;BME280;47980;48.794;9.176;2023-05-24T04:04:33;98534.47;;;12.84;72.37
13767;BME280;47980;48.794;9.176;2023-05-24T04:07:06;98528.41;;;12.95;72.67
13767;BME280;47980;48.794;9.176;2023-05-24T04:09:41;98526.63;;;12.99;71.29
13767;BME280;47980;48.794;9.176;2023-05-24T04:12:13;98526.69;;;13.12;70.06
13767;BME280;47980;48.794;9.176;2023-05-24T04:14:44;98531.47;;;12.52;72.59
13767;BME280;47980;48.794;9.176;2023-05-24T04:17:17;98536.34;;;12.71;73.97
13767;BME280;47980;48.794;9.176;2023-05-24T04:19:48;98529.56;;;12.73;72.83
13767;BME280;47980;48.794;9.176;2023-05-24T04:22:20;98525.34;;;13.06;71.12
13767;BME280;47980;48.794;9.176;2023-05-24T04:24:52;98524.91;;;13.16;70.27
13767;BME280;47980;48.794;9.176;2023-05-24T04:27:23;98528.06;;;13.30;69.33
13767;BME280;47980;48.794;9.176;2023-05-24T04:29:55;98528.88;;;12.97;71.33
13767;BME280;47980;48.794;9.176;2023-05-24T04:32:28;98526.22;;;13.10;71.59
13767;BME280;47980;48.794;9.176;2023-05-24T04:35:01;98534.63;;;13.33;70.08
13767;BME280;47980;48.794;9.176;2023-05-24T04:37:33;98540.75;;;13.33;68.93
13767;BME280;47980;48.794;9.176;2023-05-24T04:40:05;98537.13;;;13.17;71.17
13767;BME280;47980;48.794;9.176;2023-05-24T04:42:37;98543.31;;;13.09;71.13
13767;BME280;47980;48.794;9.176;2023-05-24T04:45:09;98538.34;;;13.07;70.00
13767;BME280;47980;48.794;9.176;2023-05-24T04:47:42;98539.75;;;13.05;71.36
13767;BME280;47980;48.794;9.176;2023-05-24T04:50:14;98552.25;;;12.92;71.90
13767;BME280;47980;48.794;9.176;2023-05-24T04:52:45;98551.59;;;12.95;71.13
13767;BME280;47980;48.794;9.176;2023-05-24T04:55:17;98557.28;;;12.93;72.08
13767;BME280;47980;48.794;9.176;2023-05-24T04:57:48;98558.22;;;12.89;71.55
13767;BME280;47980;48.794;9.176;2023-05-24T05:00:20;98562.22;;;13.16;71.57
13767;BME280;47980;48.794;9.176;2023-05-24T05:02:53;98561.66;;;13.22;71.04
13767;BME280;47980;48.794;9.176;2023-05-24T05:05:25;98561.47;;;13.28;70.98
13767;BME280;47980;48.794;9.176;2023-05-24T05:07:56;98551.78;;;13.23;70.69
13767;BME280;47980;48.794;9.176;2023-05-24T05:10:28;98573.50;;;13.00;70.91
13767;BME280;47980;48.794;9.176;2023-05-24T05:13:00;98558.66;;;13.12;71.67
13767;BME280;47980;48.794;9.176;2023-05-24T05:15:34;98563.59;;;13.46;69.66
13767;BME280;47980;48.794;9.176;2023-05-24T05:18:06;98562.63;;;13.18;70.80
13767;BME280;47980;48.794;9.176;2023-05-24T05:20:38;98573.38;;;12.97;71.71
13767;BME280;47980;48.794;9.176;2023-05-24T05:23:09;98581.63;;;12.83;72.05
13767;BME280;47980;48.794;9.176;2023-05-24T05:25:41;98569.50;;;13.07;72.14
13767;BME280;47980;48.794;9.176;2023-05-24T05:28:12;98571.34;;;12.94;71.83
13767;BME280;47980;48.794;9.176;2023-05-24T05:30:44;98569.19;;;13.08;72.06
13767;BME280;47980;48.794;9.176;2023-05-24T05:33:17;98573.19;;;12.81;73.63
13767;BME280;47980;48.794;9.176;2023-05-24T05:35:49;98573.16;;;13.02;71.47
13767;BME280;47980;48.794;9.176;2023-05-24T05:38:20;98576.81;;;12.97;70.72
13767;BME280;47980;48.794;9.176;2023-05-24T05:40:52;98574.41;;;13.17;70.21
13767;BME280;47980;48.794;9.176;2023-05-24T05:43:23;98568.69;;;13.27;70.63
13767;BME280;47980;48.794;9.176;2023-05-24T05:45:55;98567.63;;;13.40;69.75
13767;BME280;47980;48.794;9.176;2023-05-24T05:48:28;98570.59;;;13.27;68.79
13767;BME280;47980;48.794;9.176;2023-05-24T05:50:59;98568.56;;;13.23;69.39
13767;BME280;47980;48.794;9.176;2023-05-24T05:53:32;98565.06;;;13.44;68.88
13767;BME280;47980;48.794;9.176;2023-05-24T05:56:04;98565.63;;;13.04;69.92
13767;BME280;47980;48.794;9.176;2023-05-24T05:58:36;98568.22;;;13.25;69.94
13767;BME280;47980;48.794;9.176;2023-05-24T06:01:08;98569.97;;;13.21;71.23
13767;BME280;47980;48.794;9.176;2023-05-24T06:03:41;98567.97;;;13.51;67.03
13767;BME280;47980;48.794;9.176;2023-05-24T06:06:13;98571.38;;;13.39;67.75
13767;BME280;47980;48.794;9.176;2023-05-24T06:08:44;98563.53;;;13.55;68.86
13767;BME280;47980;48.794;9.176;2023-05-24T06:11:16;98565.00;;;13.19;67.51
13767;BME280;47980;48.794;9.176;2023-05-24T06:13:47;98565.06;;;13.11;70.36
13767;BME280;47980;48.794;9.176;2023-05-24T06:16:19;98564.94;;;13.65;68.09
13767;BME280;47980;48.794;9.176;2023-05-24T06:18:52;98564.97;;;13.77;67.35
13767;BME280;47980;48.794;9.176;2023-05-24T06:21:24;98564.41;;;13.71;66.46
13767;BME280;47980;48.794;9.176;2023-05-24T06:23:55;98561.84;;;14.00;65.73
13767;BME280;47980;48.794;9.176;2023-05-24T06:26:27;98557.72;;;14.02;66.04
13767;BME280;47980;48.794;9.176;2023-05-24T06:28:58;98560.63;;;14.09;65.16
13767;BME280;47980;48.794;9.176;2023-05-24T06:31:30;98562.13;;;14.23;66.02
13767;BME280;47980;48.794;9.176;2023-05-24T06:34:03;98569.53;;;14.54;62.98
13767;BME280;47980;48.794;9.176;2023-05-24T06:36:35;98564.13;;;14.38;63.85
13767;BME280;47980;48.794;9.176;2023-05-24T06:39:11;98563.84;;;13.78;65.58
13767;BME280;47980;48.794;9.176;2023-05-24T06:41:43;98575.16;;;14.24;65.56
13767;BME280;47980;48.794;9.176;2023-05-24T06:44:15;98570.19;;;13.98;66.69
13767;BME280;47980;48.794;9.176;2023-05-24T06:46:46;98567.09;;;13.84;66.76
13767;BME280;47980;48.794;9.176;2023-05-24T06:49:19;98578.41;;;13.44;67.60
13767;BME280;47980;48.794;9.176;2023-05-24T06:51:51;98580.50;;;13.75;66.53
13767;BME280;47980;48.794;9.176;2023-05-24T06:54:23;98582.63;;;13.82;65.95
13767;BME280;47980;48.794;9.176;2023-05-24T06:56:54;98591.28;;;13.79;67.38
13767;BME280;47980;48.794;9.176;2023-05-24T06:59:26;98601.69;;;13.47;67.87
13767;BME280;47980;48.794;9.176;2023-05-24T07:01:58;98601.44;;;13.28;68.56
13767;BME280;47980;48.794;9.176;2023-05-24T07:04:31;98601.25;;;13.45;68.65
13767;BME280;47980;48.794;9.176;2023-05-24T07:07:03;98605.81;;;13.11;69.11
13767;BME280;47980;48.794;9.176;2023-05-24T07:09:35;98612.03;;;13.15;70.11
13767;BME280;47980;48.794;9.176;2023-05-24T07:12:06;98602.03;;;13.33;69.70
13767;BME280;47980;48.794;9.176;2023-05-24T07:14:38;98612.25;;;13.43;70.48
13767;BME280;47980;48.794;9.176;2023-05-24T07:17:09;98612.94;;;13.40;68.52
13767;BME280;47980;48.794;9.176;2023-05-24T07:19:42;98615.59;;;13.40;69.32
13767;BME280;47980;48.794;9.176;2023-05-24T07:22:13;98619.91;;;13.45;70.17
13767;BME280;47980;48.794;9.176;2023-05-24T07:24:45;98620.31;;;13.80;68.75
13767;BME280;47980;48.794;9.176;2023-05-24T07:27:17;98622.75;;;13.73;67.71
13767;BME280;47980;48.794;9.176;2023-05-24T07:29:48;98625.63;;;13.92;67.39
13767;BME280;47980;48.794;9.176;2023-05-24T07:32:20;98627.06;;;13.65;68.96
13767;BME280;47980;48.794;9.176;2023-05-24T07:34:53;98631.06;;;13.59;68.31
13767;BME280;47980;48.794;9.176;2023-05-24T07:37:25;98630.88;;;13.77;67.41
13767;BME280;47980;48.794;9.176;2023-05-24T07:39:56;98632.63;;;13.85;66.19
13767;BME280;47980;48.794;9.176;2023-05-24T07:42:28;98633.06;;;13.87;66.83
13767;BME280;47980;48.794;9.176;2023-05-24T07:44:59;98637.84;;;14.42;65.01
13767;BME280;47980;48.794;9.176;2023-05-24T07:47:31;98625.19;;;14.27;65.25
13767;BME280;47980;48.794;9.176;2023-05-24T07:50:05;98626.16;;;14.47;64.63
13767;BME280;47980;48.794;9.176;2023-05-24T07:52:37;98632.28;;;14.60;63.78
13767;BME280;47980;48.794;9.176;2023-05-24T07:55:08;98636.19;;;14.38;65.86
13767;BME280;47980;48.794;9.176;2023-05-24T07:57:40;98636.25;;;14.41;65.16
13767;BME280;47980;48.794;9.176;2023-05-24T08:00:13;98633.84;;;14.36;63.90
13767;BME280;47980;48.794;9.176;2023-05-24T08:02:45;98640.50;;;14.55;64.19
13767;BME280;47980;48.794;9.176;2023-05-24T08:05:18;98640.53;;;13.93;65.19
13767;BME280;47980;48.794;9.176;2023-05-24T08:07:50;98633.84;;;14.12;64.99
13767;BME280;47980;48.794;9.176;2023-05-24T08:10:21;98639.75;;;14.42;63.62
13767;BME280;47980;48.794;9.176;2023-05-24T08:12:54;98635.94;;;14.43;63.86
13767;BME280;47980;48.794;9.176;2023-05-24T08:15:25;98646.19;;;14.53;64.36
13767;BME280;47980;48.794;9.176;2023-05-24T08:17:57;98644.63;;;14.40;64.14
13767;BME280;47980;48.794;9.176;2023-05-24T08:20:30;98649.09;;;14.36;64.27
13767;BME280;47980;48.794;9.176;2023-05-24T08:23:05;98650.31;;;14.51;63.74
13767;BME280;47980;48.794;9.176;2023-05-24T08:25:36;98652.75;;;14.19;64.26
13767;BME280;47980;48.794;9.176;2023-05-24T08:28:09;98657.97;;;13.79;66.03
13767;BME280;47980;48.794;9.176;2023-05-24T08:30:41;98661.16;;;13.72;68.76
13767;BME280;47980;48.794;9.176;2023-05-24T08:33:12;98659.44;;;14.01;65.72
13767;BME280;47980;48.794;9.176;2023-05-24T08:35:46;98658.66;;;14.25;66.23
13767;BME280;47980;48.794;9.176;2023-05-24T08:38:17;98663.41;;;14.56;65.21
13767;BME280;47980;48.794;9.176;2023-05-24T08:40:49;98660.09;;;14.10;65.92
13767;BME280;47980;48.794;9.176;2023-05-24T08:43:21;98658.53;;;14.21;64.04
13767;BME280;47980;48.794;9.176;2023-05-24T08:45:55;98658.44;;;14.42;64.09
13767;BME280;47980;48.794;9.176;2023-05-24T08:48:28;98668.09;;;14.71;62.45
13767;BME280;47980;48.794;9.176;2023-05-24T08:51:01;98662.53;;;14.64;63.57
13767;BME280;47980;48.794;9.176;2023-05-24T08:53:35;98664.41;;;14.76;62.87
13767;BME280;47980;48.794;9.176;2023-05-24T08:56:07;98670.03;;;15.43;60.96
13767;BME280;47980;48.794;9.176;2023-05-24T08:58:39;98665.34;;;15.24;62.07
13767;BME280;47980;48.794;9.176;2023-05-24T09:01:12;98670.88;;;15.03;61.68
13767;BME280;47980;48.794;9.176;2023-05-24T09:03:45;98669.75;;;14.76;61.49
13767;BME280;47980;48.794;9.176;2023-05-24T09:06:18;98664.84;;;14.65;62.86
13767;BME280;47980;48.794;9.176;2023-05-24T09:08:50;98666.91;;;14.97;61.52
13767;BME280;47980;48.794;9.176;2023-05-24T09:11:23;98663.94;;;14.86;62.11
13767;BME280;47980;48.794;9.176;2023-05-24T09:13:56;98670.06;;;14.74;62.45
13767;BME280;47980;48.794;9.176;2023-05-24T09:16:27;98662.28;;;14.44;62.76
13767;BME280;47980;48.794;9.176;2023-05-24T09:18:59;98664.75;;;14.01;65.08
13767;BME280;47980;48.794;9.176;2023-05-24T09:21:34;98660.31;;;14.54;63.68
13767;BME280;47980;48.794;9.176;2023-05-24T09:24:06;98662.28;;;14.69;62.78
13767;BME280;47980;48.794;9.176;2023-05-24T09:26:38;98665.00;;;14.20;64.40
13767;BME280;47980;48.794;9.176;2023-05-24T09:29:10;98659.09;;;14.51;65.67
13767;BME280;47980;48.794;9.176;2023-05-24T09:31:41;98662.88;;;14.50;63.10
13767;BME280;47980;48.794;9.176;2023-05-24T09:34:14;98657.41;;;14.59;64.39
13767;BME280;47980;48.794;9.176;2023-05-24T09:36:47;98671.00;;;14.54;64.34
13767;BME280;47980;48.794;9.176;2023-05-24T09:39:19;98666.19;;;14.59;62.70
13767;BME280;47980;48.794;9.176;2023-05-24T09:41:52;98671.78;;;14.42;63.71
13767;BME280;47980;48.794;9.176;2023-05-24T09:44:27;98675.53;;;14.04;63.30
13767;BME280;47980;48.794;9.176;2023-05-24T09:47:01;98672.31;;;14.35;64.01
13767;BME280;47980;48.794;9.176;2023-05-24T09:49:35;98676.84;;;13.86;65.28
13767;BME280;47980;48.794;9.176;2023-05-24T09:52:12;98675.22;;;14.06;64.95
13767;BME280;47980;48.794;9.176;2023-05-24T09:54:44;98670.53;;;13.78;65.25
13767;BME280;47980;48.794;9.176;2023-05-24T09:57:17;98668.44;;;13.84;65.95
13767;BME280;47980;48.794;9.176;2023-05-24T09:59:51;98680.41;;;13.90;66.28
13767;BME280;47980;48.794;9.176;2023-05-24T10:02:24;98683.13;;;14.02;65.92
13767;BME280;47980;48.794;9.176;2023-05-24T10:04:58;98675.00;;;14.23;65.98
13767;BME280;47980;48.794;9.176;2023-05-24T10:07:32;98676.78;;;14.19;65.39
13767;BME280;47980;48.794;9.176;2023-05-24T10:10:05;98679.22;;;14.00;63.90
13767;BME280;47980;48.794;9.176;2023-05-24T10:12:38;98688.72;;;13.76;65.66
13767;BME280;47980;48.794;9.176;2023-05-24T10:15:13;98671.44;;;13.94;65.31
13767;BME280;47980;48.794;9.176;2023-05-24T10:17:44;98679.94;;;13.76;66.89
13767;BME280;47980;48.794;9.176;2023-05-24T10:20:16;98675.00;;;14.11;63.95
13767;BME280;47980;48.794;9.176;2023-05-24T10:22:51;98681.09;;;14.36;64.20
13767;BME280;47980;48.794;9.176;2023-05-24T10:25:23;98677.88;;;14.18;63.16
13767;BME280;47980;48.794;9.176;2023-05-24T10:28:00;98672.56;;;14.06;63.75
13767;BME280;47980;48.794;9.176;2023-05-24T10:30:36;98673.66;;;13.80;64.55
13767;BME280;47980;48.794;9.176;2023-05-24T10:33:13;98672.31;;;14.35;63.43
13767;BME280;47980;48.794;9.176;2023-05-24T10:35:45;98667.22;;;14.42;63.12
13767;BME280;47980;48.794;9.176;2023-05-24T10:38:19;98668.34;;;14.54;61.39
13767;BME280;47980;48.794;9.176;2023-05-24T10:40:52;98667.41;;;14.62;62.92
13767;BME280;47980;48.794;9.176;2023-05-24T10:43:24;98667.31;;;14.58;60.98
13767;BME280;47980;48.794;9.176;2023-05-24T10:45:56;98660.75;;;14.43;61.04
13767;BME280;47980;48.794;9.176;2023-05-24T10:48:35;98663.53;;;14.10;64.23
13767;BME280;47980;48.794;9.176;2023-05-24T10:51:29;98658.94;;;14.72;61.78
13767;BME280;47980;48.794;9.176;2023-05-24T10:54:16;98668.03;;;14.83;60.66
13767;BME280;47980;48.794;9.176;2023-05-24T10:56:49;98664.03;;;14.89;60.36
13767;BME280;47980;48.794;9.176;2023-05-24T10:59:23;98655.91;;;15.14;59.38
13767;BME280;47980;48.794;9.176;2023-05-24T11:01:55;98646.53;;;15.20;59.32
13767;BME280;47980;48.794;9.176;2023-05-24T11:04:34;98650.22;;;15.44;57.20
13767;BME280;47980;48.794;9.176;2023-05-24T11:07:07;98653.56;;;15.69;57.42
13767;BME280;47980;48.794;9.176;2023-05-24T11:09:41;98652.59;;;15.93;57.95
13767;BME280;47980;48.794;9.176;2023-05-24T11:12:16;98647.00;;;15.82;56.56
13767;BME280;47980;48.794;9.176;2023-05-24T11:14:50;98644.94;;;15.91;55.11
13767;BME280;47980;48.794;9.176;2023-05-24T11:17:22;98647.59;;;16.07;55.61
13767;BME280;47980;48.794;9.176;2023-05-24T11:19:54;98651.06;;;15.92;55.57
13767;BME280;47980;48.794;9.176;2023-05-24T11:22:26;98655.69;;;16.10;56.01
13767;BME280;47980;48.794;9.176;2023-05-24T11:25:00;98643.44;;;16.09;55.49
13767;BME280;47980;48.794;9.176;2023-05-24T11:27:41;98650.13;;;15.56;55.20
13767;BME280;47980;48.794;9.176;2023-05-24T11:30:14;98654.69;;;16.50;54.84
13767;BME280;47980;48.794;9.176;2023-05-24T11:32:46;98645.59;;;16.55;53.37
13767;BME280;47980;48.794;9.176;2023-05-24T11:35:18;98645.75;;;16.11;52.60
13767;BME280;47980;48.794;9.176;2023-05-24T11:37:52;98638.50;;;15.64;53.03
13767;BME280;47980;48.794;9.176;2023-05-24T11:40:25;98645.59;;;15.72;52.99
13767;BME280;47980;48.794;9.176;2023-05-24T11:42:57;98631.34;;;16.00;53.80
13767;BME280;47980;48.794;9.176;2023-05-24T11:45:28;98635.50;;;16.48;52.47
13767;BME280;47980;48.794;9.176;2023-05-24T11:48:03;98627.50;;;16.68;51.62
13767;BME280;47980;48.794;9.176;2023-05-24T11:50:39;98629.00;;;16.84;52.63
13767;BME280;47980;48.794;9.176;2023-05-24T11:53:11;98627.31;;;16.76;51.80
13767;BME280;47980;48.794;9.176;2023-05-24T11:55:44;98630.34;;;16.59;53.90
13767;BME280;47980;48.794;9.176;2023-05-24T11:58:21;98623.50;;;16.97;49.96
13767;BME280;47980;48.794;9.176;2023-05-24T12:00:53;98615.09;;;16.08;50.87
13767;BME280;47980;48.794;9.176;2023-05-24T12:03:25;98620.56;;;16.47;50.42
13767;BME280;47980;48.794;9.176;2023-05-24T12:05:57;98614.78;;;16.10;50.67
13767;BME280;47980;48.794;9.176;2023-05-24T12:08:28;98615.84;;;16.60;49.00
13767;BME280;47980;48.794;9.176;2023-05-24T12:11:02;98621.47;;;16.55;48.46
13767;BME280;47980;48.794;9.176;2023-05-24T12:13:34;98615.47;;;16.97;50.96
13767;BME280;47980;48.794;9.176;2023-05-24T12:16:07;98610.38;;;16.37;50.17
13767;BME280;47980;48.794;9.176;2023-05-24T12:18:41;98614.44;;;16.66;50.12
13767;BME280;47980;48.794;9.176;2023-05-24T12:21:14;98615.88;;;17.18;48.97
13767;BME280;47980;48.794;9.176;2023-05-24T12:23:46;98608.28;;;17.43;48.36
13767;BME280;47980;48.794;9.176;2023-05-24T12:26:20;98606.56;;;17.77;48.05
13767;BME280;47980;48.794;9.176;2023-05-24T12:28:53;98611.78;;;17.47;47.24
13767;BME280;47980;48.794;9.176;2023-05-24T12:31:26;98607.53;;;17.23;47.93
13767;BME280;47980;48.794;9.176;2023-05-24T12:33:57;98605.59;;;16.81;49.29
13767;BME280;47980;48.794;9.176;2023-05-24T12:36:29;98603.16;;;17.15;48.59
13767;BME280;47980;48.794;9.176;2023-05-24T12:39:05;98597.44;;;17.17;49.61
13767;BME280;47980;48.794;9.176;2023-05-24T12:41:51;98595.72;;;17.28;48.41
13767;BME280;47980;48.794;9.176;2023-05-24T12:44:23;98597.06;;;16.76;49.46
13767;BME280;47980;48.794;9.176;2023-05-24T12:46:56;98599.22;;;17.09;49.45
13767;BME280;47980;48.794;9.176;2023-05-24T12:49:28;98598.75;;;17.03;47.08
13767;BME280;47980;48.794;9.176;2023-05-24T12:52:00;98596.88;;;17.50;47.56
13767;BME280;47980;48.794;9.176;2023-05-24T12:54:32;98595.09;;;17.58;45.70
13767;BME280;47980;48.794;9.176;2023-05-24T12:57:05;98579.63;;;17.74;44.88
13767;BME280;47980;48.794;9.176;2023-05-24T12:59:36;98588.94;;;17.57;46.44
13767;BME280;47980;48.794;9.176;2023-05-24T13:02:08;98585.44;;;17.30;47.56
13767;BME280;47980;48.794;9.176;2023-05-24T13:04:39;98579.25;;;17.98;45.72
13767;BME280;47980;48.794;9.176;2023-05-24T13:07:11;98579.66;;;19.24;45.58
13767;BME280;47980;48.794;9.176;2023-05-24T13:09:43;98581.69;;;18.67;45.60
13767;BME280;47980;48.794;9.176;2023-05-24T13:12:16;98575.16;;;18.35;46.42
13767;BME280;47980;48.794;9.176;2023-05-24T13:14:47;98573.06;;;17.94;47.27
13767;BME280;47980;48.794;9.176;2023-05-24T13:17:19;98565.19;;;17.82;48.31
13767;BME280;47980;48.794;9.176;2023-05-24T13:19:51;98567.19;;;17.39;47.94
13767;BME280;47980;48.794;9.176;2023-05-24T13:22:22;98567.53;;;17.38;47.49
13767;BME280;47980;48.794;9.176;2023-05-24T13:24:54;98565.91;;;17.79;46.08
13767;BME280;47980;48.794;9.176;2023-05-24T13:27:27;98559.84;;;17.13;46.02
13767;BME280;47980;48.794;9.176;2023-05-24T13:29:59;98561.72;;;17.32;46.63